sensor_id;sensor_type;location;lat;lon;timestamp;P1;durP1;ratioP1;P2;durP2;ratioP2
22929;SDS011;11630;42.660;23.292;2023-05-14T00:02:18;5.23;;;3.47;;
22929;SDS011;11630;42.660;23.292;2023-05-14T00:04:48;5.27;;;3.63;;
22929;SDS011;11630;42.660;23.292;2023-05-14T00:07:18;8.00;;;3.50;;
22929;SDS011;11630;42.660;23.292;2023-05-14T00:09:49;6.33;;;4.90;;
22929;SDS011;11630;42.660;23.292;2023-05-14T00:12:20;4.77;;;3.23;;
22929;SDS011;11630;42.660;23.292;2023-05-14T00:14:52;4.63;;;3.13;;
22929;SDS011;11630;42.660;23.292;2023-05-14T00:17:23;7.50;;;3.70;;
22929;SDS011;11630;42.660;23.292;2023-05-14T00:19:53;5.33;;;3.50;;
22929;SDS011;11630;42.660;23.292;2023-05-14T00:22:24;6.87;;;3.33;;
22929;SDS011;11630;42.660;23.292;2023-05-14T00:24:55;4.07;;;3.47;;
22929;SDS011;11630;42.660;23.292;2023-05-14T00:27:26;4.23;;;3.83;;
22929;SDS011;11630;42.660;23.292;2023-05-14T00:29:57;4.40;;;3.13;;
22929;SDS011;11630;42.660;23.292;2023-05-14T00:32:27;7.40;;;3.60;;
22929;SDS011;11630;42.660;23.292;2023-05-14T00:34:58;4.83;;;3.60;;
22929;SDS011;11630;42.660;23.292;2023-05-14T00:37:29;6.50;;;3.90;;
22929;SDS011;11630;42.660;23.292;2023-05-14T00:40:00;3.17;;;2.87;;
22929;SDS011;11630;42.660;23.292;2023-05-14T00:42:31;6.40;;;3.70;;
22929;SDS011;11630;42.660;23.292;2023-05-14T00:45:02;3.73;;;3.33;;
22929;SDS011;11630;42.660;23.292;2023-05-14T00:47:34;4.57;;;3.77;;
22929;SDS011;11630;42.660;23.292;2023-05-14T00:50:05;6.20;;;3.73;;
22929;SDS011;11630;42.660;23.292;2023-05-14T00:52:36;4.10;;;3.70;;
22929;SDS011;11630;42.660;23.292;2023-05-14T00:55:08;4.03;;;3.57;;
22929;SDS011;11630;42.660;23.292;2023-05-14T00:57:38;4.47;;;3.40;;
22929;SDS011;11630;42.660;23.292;2023-05-14T01:00:09;5.90;;;3.90;;
22929;SDS011;11630;42.660;23.292;2023-05-14T01:02:40;4.83;;;3.70;;
22929;SDS011;11630;42.660;23.292;2023-05-14T01:05:11;3.70;;;3.40;;
22929;SDS011;11630;42.660;23.292;2023-05-14T01:07:52;3.40;;;3.10;;
22929;SDS011;11630;42.660;23.292;2023-05-14T01:15:54;5.37;;;3.00;;
22929;SDS011;11630;42.660;23.292;2023-05-14T01:18:27;3.60;;;3.30;;
22929;SDS011;11630;42.660;23.292;2023-05-14T01:20:57;4.93;;;3.43;;
22929;SDS011;11630;42.660;23.292;2023-05-14T01:23:29;3.60;;;3.30;;
22929;SDS011;11630;42.660;23.292;2023-05-14T01:26:00;3.47;;;3.17;;
22929;SDS011;11630;42.660;23.292;2023-05-14T01:28:31;3.80;;;3.40;;
22929;SDS011;11630;42.660;23.292;2023-05-14T01:31:10;3.20;;;2.90;;
22929;SDS011;11630;42.660;23.292;2023-05-14T01:33:38;7.63;;;3.17;;
22929;SDS011;11630;42.660;23.292;2023-05-14T01:36:10;5.50;;;3.30;;
22929;SDS011;11630;42.660;23.292;2023-05-14T01:38:40;4.83;;;3.00;;
22929;SDS011;11630;42.660;23.292;2023-05-14T01:41:12;3.57;;;3.07;;
22929;SDS011;11630;42.660;23.292;2023-05-14T01:43:44;4.60;;;3.13;;
22929;SDS011;11630;42.660;23.292;2023-05-14T01:46:18;2.83;;;2.53;;
22929;SDS011;11630;42.660;23.292;2023-05-14T01:48:50;6.40;;;3.03;;
22929;SDS011;11630;42.660;23.292;2023-05-14T01:51:21;4.30;;;3.00;;
22929;SDS011;11630;42.660;23.292;2023-05-14T01:53:52;3.07;;;2.80;;
22929;SDS011;11630;42.660;23.292;2023-05-14T01:56:23;8.03;;;3.13;;
22929;SDS011;11630;42.660;23.292;2023-05-14T01:58:56;3.50;;;2.97;;
22929;SDS011;11630;42.660;23.292;2023-05-14T02:01:26;3.50;;;2.80;;
22929;SDS011;11630;42.660;23.292;2023-05-14T02:03:58;4.37;;;3.10;;
22929;SDS011;11630;42.660;23.292;2023-05-14T02:06:29;4.60;;;3.33;;
22929;SDS011;11630;42.660;23.292;2023-05-14T02:09:00;5.30;;;3.13;;
22929;SDS011;11630;42.660;23.292;2023-05-14T02:11:31;4.93;;;3.03;;
22929;SDS011;11630;42.660;23.292;2023-05-14T02:14:02;4.67;;;3.07;;
22929;SDS011;11630;42.660;23.292;2023-05-14T02:16:33;3.00;;;2.70;;
22929;SDS011;11630;42.660;23.292;2023-05-14T02:19:04;4.03;;;3.23;;
22929;SDS011;11630;42.660;23.292;2023-05-14T02:21:34;6.80;;;2.97;;
22929;SDS011;11630;42.660;23.292;2023-05-14T02:24:06;3.50;;;2.70;;
22929;SDS011;11630;42.660;23.292;2023-05-14T02:26:38;2.73;;;2.53;;
22929;SDS011;11630;42.660;23.292;2023-05-14T02:29:08;3.53;;;2.77;;
22929;SDS011;11630;42.660;23.292;2023-05-14T02:31:40;6.00;;;2.90;;
22929;SDS011;11630;42.660;23.292;2023-05-14T02:34:11;3.53;;;2.80;;
22929;SDS011;11630;42.660;23.292;2023-05-14T02:36:42;3.93;;;2.80;;
22929;SDS011;11630;42.660;23.292;2023-05-14T02:39:13;3.83;;;3.10;;
22929;SDS011;11630;42.660;23.292;2023-05-14T02:41:44;2.93;;;2.73;;
22929;SDS011;11630;42.660;23.292;2023-05-14T02:44:15;4.60;;;3.23;;
22929;SDS011;11630;42.660;23.292;2023-05-14T02:46:46;3.33;;;2.80;;
22929;SDS011;11630;42.660;23.292;2023-05-14T02:49:17;5.77;;;3.23;;
22929;SDS011;11630;42.660;23.292;2023-05-14T02:51:48;3.33;;;3.07;;
22929;SDS011;11630;42.660;23.292;2023-05-14T02:54:19;4.30;;;2.80;;
22929;SDS011;11630;42.660;23.292;2023-05-14T02:56:50;3.33;;;3.00;;
22929;SDS011;11630;42.660;23.292;2023-05-14T02:59:21;9.13;;;3.00;;
22929;SDS011;11630;42.660;23.292;2023-05-14T03:01:52;3.80;;;3.30;;
22929;SDS011;11630;42.660;23.292;2023-05-14T03:04:23;4.43;;;3.10;;
22929;SDS011;11630;42.660;23.292;2023-05-14T03:06:54;3.77;;;3.10;;
22929;SDS011;11630;42.660;23.292;2023-05-14T03:09:25;5.67;;;3.80;;
22929;SDS011;11630;42.660;23.292;2023-05-14T03:11:56;6.00;;;3.33;;
22929;SDS011;11630;42.660;23.292;2023-05-14T03:14:27;6.17;;;2.50;;
22929;SDS011;11630;42.660;23.292;2023-05-14T03:16:58;5.10;;;4.23;;
22929;SDS011;11630;42.660;23.292;2023-05-14T03:19:29;5.37;;;3.67;;
22929;SDS011;11630;42.660;23.292;2023-05-14T03:21:59;4.50;;;2.90;;
22929;SDS011;11630;42.660;23.292;2023-05-14T03:24:30;7.57;;;3.20;;
22929;SDS011;11630;42.660;23.292;2023-05-14T03:27:01;4.70;;;3.00;;
22929;SDS011;11630;42.660;23.292;2023-05-14T03:29:32;3.50;;;3.20;;
22929;SDS011;11630;42.660;23.292;2023-05-14T03:32:03;5.90;;;3.40;;
22929;SDS011;11630;42.660;23.292;2023-05-14T03:34:34;4.70;;;3.93;;
22929;SDS011;11630;42.660;23.292;2023-05-14T03:37:05;6.27;;;4.80;;
22929;SDS011;11630;42.660;23.292;2023-05-14T03:39:36;5.27;;;3.00;;
22929;SDS011;11630;42.660;23.292;2023-05-14T03:42:06;3.87;;;3.47;;
22929;SDS011;11630;42.660;23.292;2023-05-14T03:44:36;6.43;;;2.90;;
22929;SDS011;11630;42.660;23.292;2023-05-14T03:47:07;4.83;;;3.27;;
22929;SDS011;11630;42.660;23.292;2023-05-14T03:49:38;5.70;;;3.60;;
22929;SDS011;11630;42.660;23.292;2023-05-14T03:52:08;3.37;;;3.10;;
22929;SDS011;11630;42.660;23.292;2023-05-14T03:54:39;3.20;;;2.93;;
22929;SDS011;11630;42.660;23.292;2023-05-14T03:57:10;5.50;;;3.30;;
22929;SDS011;11630;42.660;23.292;2023-05-14T03:59:41;3.50;;;3.20;;
22929;SDS011;11630;42.660;23.292;2023-05-14T04:02:12;4.57;;;3.47;;
22929;SDS011;11630;42.660;23.292;2023-05-14T04:04:42;3.70;;;2.90;;
22929;SDS011;11630;42.660;23.292;2023-05-14T04:07:13;6.33;;;3.73;;
22929;SDS011;11630;42.660;23.292;2023-05-14T04:09:44;3.90;;;3.43;;
22929;SDS011;11630;42.660;23.292;2023-05-14T04:12:15;3.80;;;3.10;;
22929;SDS011;11630;42.660;23.292;2023-05-14T04:14:46;3.83;;;3.23;;
22929;SDS011;11630;42.660;23.292;2023-05-14T04:17:17;3.77;;;3.03;;
22929;SDS011;11630;42.660;23.292;2023-05-14T04:19:48;6.07;;;3.30;;
22929;SDS011;11630;42.660;23.292;2023-05-14T04:22:19;3.30;;;3.07;;
22929;SDS011;11630;42.660;23.292;2023-05-14T04:24:50;5.20;;;3.00;;
22929;SDS011;11630;42.660;23.292;2023-05-14T04:27:20;3.30;;;2.93;;
22929;SDS011;11630;42.660;23.292;2023-05-14T04:29:51;3.03;;;2.73;;
22929;SDS011;11630;42.660;23.292;2023-05-14T04:32:22;3.43;;;3.13;;
22929;SDS011;11630;42.660;23.292;2023-05-14T04:34:52;3.77;;;3.47;;
22929;SDS011;11630;42.660;23.292;2023-05-14T04:37:23;4.47;;;3.50;;
22929;SDS011;11630;42.660;23.292;2023-05-14T04:39:54;3.43;;;3.13;;
22929;SDS011;11630;42.660;23.292;2023-05-14T04:42:25;5.67;;;3.77;;
22929;SDS011;11630;42.660;23.292;2023-05-14T04:44:55;7.60;;;3.70;;
22929;SDS011;11630;42.660;23.292;2023-05-14T04:47:26;4.13;;;3.67;;
22929;SDS011;11630;42.660;23.292;2023-05-14T04:49:57;6.60;;;3.70;;
22929;SDS011;11630;42.660;23.292;2023-05-14T04:52:29;4.43;;;4.03;;
22929;SDS011;11630;42.660;23.292;2023-05-14T04:54:59;5.10;;;3.57;;
22929;SDS011;11630;42.660;23.292;2023-05-14T04:57:29;4.63;;;4.13;;
22929;SDS011;11630;42.660;23.292;2023-05-14T05:00:00;3.87;;;3.47;;
22929;SDS011;11630;42.660;23.292;2023-05-14T05:02:34;4.63;;;3.60;;
22929;SDS011;11630;42.660;23.292;2023-05-14T05:05:05;5.43;;;3.77;;
22929;SDS011;11630;42.660;23.292;2023-05-14T05:07:35;4.13;;;3.70;;
22929;SDS011;11630;42.660;23.292;2023-05-14T05:10:07;6.87;;;3.63;;
22929;SDS011;11630;42.660;23.292;2023-05-14T05:12:37;5.13;;;3.53;;
22929;SDS011;11630;42.660;23.292;2023-05-14T05:15:09;6.03;;;4.23;;
22929;SDS011;11630;42.660;23.292;2023-05-14T05:17:40;4.80;;;3.70;;
22929;SDS011;11630;42.660;23.292;2023-05-14T05:20:11;3.90;;;3.53;;
22929;SDS011;11630;42.660;23.292;2023-05-14T05:22:43;6.07;;;4.10;;
22929;SDS011;11630;42.660;23.292;2023-05-14T05:25:14;4.90;;;4.27;;
22929;SDS011;11630;42.660;23.292;2023-05-14T05:27:45;4.00;;;3.63;;
22929;SDS011;11630;42.660;23.292;2023-05-14T05:30:15;4.70;;;4.23;;
22929;SDS011;11630;42.660;23.292;2023-05-14T05:32:45;8.13;;;4.83;;
22929;SDS011;11630;42.660;23.292;2023-05-14T05:35:16;10.00;;;4.50;;
22929;SDS011;11630;42.660;23.292;2023-05-14T05:37:47;4.87;;;4.13;;
22929;SDS011;11630;42.660;23.292;2023-05-14T05:40:17;6.77;;;4.67;;
22929;SDS011;11630;42.660;23.292;2023-05-14T05:42:48;4.83;;;4.20;;
22929;SDS011;11630;42.660;23.292;2023-05-14T05:45:19;6.20;;;4.90;;
22929;SDS011;11630;42.660;23.292;2023-05-14T05:47:52;9.23;;;4.70;;
22929;SDS011;11630;42.660;23.292;2023-05-14T05:50:22;7.83;;;5.37;;
22929;SDS011;11630;42.660;23.292;2023-05-14T05:52:54;5.13;;;4.33;;
22929;SDS011;11630;42.660;23.292;2023-05-14T05:55:24;12.40;;;6.07;;
22929;SDS011;11630;42.660;23.292;2023-05-14T05:57:56;5.60;;;5.03;;
22929;SDS011;11630;42.660;23.292;2023-05-14T06:00:27;7.10;;;4.77;;
22929;SDS011;11630;42.660;23.292;2023-05-14T06:02:58;6.03;;;5.27;;
22929;SDS011;11630;42.660;23.292;2023-05-14T06:05:27;6.37;;;5.43;;
22929;SDS011;11630;42.660;23.292;2023-05-14T06:07:58;9.47;;;5.77;;
22929;SDS011;11630;42.660;23.292;2023-05-14T06:10:29;6.33;;;5.73;;
22929;SDS011;11630;42.660;23.292;2023-05-14T06:13:00;6.67;;;5.67;;
22929;SDS011;11630;42.660;23.292;2023-05-14T06:15:31;5.93;;;5.33;;
22929;SDS011;11630;42.660;23.292;2023-05-14T06:18:02;8.33;;;5.50;;
22929;SDS011;11630;42.660;23.292;2023-05-14T06:20:35;13.43;;;6.20;;
22929;SDS011;11630;42.660;23.292;2023-05-14T06:23:05;10.60;;;7.20;;
22929;SDS011;11630;42.660;23.292;2023-05-14T06:25:37;12.97;;;6.27;;
22929;SDS011;11630;42.660;23.292;2023-05-14T06:28:11;9.07;;;6.13;;
22929;SDS011;11630;42.660;23.292;2023-05-14T06:30:42;7.23;;;5.70;;
22929;SDS011;11630;42.660;23.292;2023-05-14T06:33:14;10.83;;;7.37;;
22929;SDS011;11630;42.660;23.292;2023-05-14T06:35:45;12.50;;;6.47;;
22929;SDS011;11630;42.660;23.292;2023-05-14T06:38:16;7.40;;;5.93;;
22929;SDS011;11630;42.660;23.292;2023-05-14T06:40:47;9.80;;;7.40;;
22929;SDS011;11630;42.660;23.292;2023-05-14T06:43:19;12.77;;;6.53;;
22929;SDS011;11630;42.660;23.292;2023-05-14T06:45:51;10.07;;;5.90;;
22929;SDS011;11630;42.660;23.292;2023-05-14T06:48:23;6.73;;;6.13;;
22929;SDS011;11630;42.660;23.292;2023-05-14T06:50:54;9.20;;;5.73;;
22929;SDS011;11630;42.660;23.292;2023-05-14T06:53:25;7.50;;;6.33;;
22929;SDS011;11630;42.660;23.292;2023-05-14T06:55:55;7.43;;;6.07;;
22929;SDS011;11630;42.660;23.292;2023-05-14T06:58:26;7.10;;;6.13;;
22929;SDS011;11630;42.660;23.292;2023-05-14T07:00:57;10.43;;;6.03;;
22929;SDS011;11630;42.660;23.292;2023-05-14T07:03:28;7.87;;;5.60;;
22929;SDS011;11630;42.660;23.292;2023-05-14T07:05:59;9.20;;;5.90;;
22929;SDS011;11630;42.660;23.292;2023-05-14T07:08:30;7.23;;;5.70;;
22929;SDS011;11630;42.660;23.292;2023-05-14T07:11:01;8.13;;;5.97;;
22929;SDS011;11630;42.660;23.292;2023-05-14T07:13:31;7.30;;;5.90;;
22929;SDS011;11630;42.660;23.292;2023-05-14T07:16:02;5.53;;;4.77;;
22929;SDS011;11630;42.660;23.292;2023-05-14T07:18:34;7.93;;;5.83;;
22929;SDS011;11630;42.660;23.292;2023-05-14T07:21:04;5.90;;;4.80;;
22929;SDS011;11630;42.660;23.292;2023-05-14T07:23:35;6.93;;;5.70;;
22929;SDS011;11630;42.660;23.292;2023-05-14T07:26:07;9.60;;;5.67;;
22929;SDS011;11630;42.660;23.292;2023-05-14T07:28:38;7.53;;;5.97;;
22929;SDS011;11630;42.660;23.292;2023-05-14T07:31:09;7.20;;;6.50;;
22929;SDS011;11630;42.660;23.292;2023-05-14T07:33:41;7.13;;;6.43;;
22929;SDS011;11630;42.660;23.292;2023-05-14T07:36:12;10.07;;;6.73;;
22929;SDS011;11630;42.660;23.292;2023-05-14T07:38:42;10.73;;;6.13;;
22929;SDS011;11630;42.660;23.292;2023-05-14T07:41:13;6.57;;;5.87;;
22929;SDS011;11630;42.660;23.292;2023-05-14T07:43:44;9.70;;;6.00;;
22929;SDS011;11630;42.660;23.292;2023-05-14T07:46:15;7.13;;;5.80;;
22929;SDS011;11630;42.660;23.292;2023-05-14T07:48:46;7.77;;;6.23;;
22929;SDS011;11630;42.660;23.292;2023-05-14T07:51:17;11.60;;;6.60;;
22929;SDS011;11630;42.660;23.292;2023-05-14T07:53:48;8.30;;;5.73;;
22929;SDS011;11630;42.660;23.292;2023-05-14T07:56:18;11.03;;;6.20;;
22929;SDS011;11630;42.660;23.292;2023-05-14T07:58:50;14.03;;;9.37;;
22929;SDS011;11630;42.660;23.292;2023-05-14T08:01:20;9.53;;;6.80;;
22929;SDS011;11630;42.660;23.292;2023-05-14T08:03:51;10.10;;;7.03;;
22929;SDS011;11630;42.660;23.292;2023-05-14T08:06:21;10.43;;;6.63;;
22929;SDS011;11630;42.660;23.292;2023-05-14T08:08:53;12.97;;;6.70;;
22929;SDS011;11630;42.660;23.292;2023-05-14T08:11:24;16.03;;;8.70;;
22929;SDS011;11630;42.660;23.292;2023-05-14T08:13:55;8.53;;;5.93;;
22929;SDS011;11630;42.660;23.292;2023-05-14T08:16:25;7.87;;;5.73;;
22929;SDS011;11630;42.660;23.292;2023-05-14T08:18:55;10.67;;;6.33;;
22929;SDS011;11630;42.660;23.292;2023-05-14T08:21:26;7.87;;;6.77;;
22929;SDS011;11630;42.660;23.292;2023-05-14T08:23:57;11.77;;;8.27;;
22929;SDS011;11630;42.660;23.292;2023-05-14T08:26:28;9.37;;;8.10;;
22929;SDS011;11630;42.660;23.292;2023-05-14T08:28:59;12.37;;;7.80;;
22929;SDS011;11630;42.660;23.292;2023-05-14T08:31:33;18.50;;;10.50;;
22929;SDS011;11630;42.660;23.292;2023-05-14T08:34:04;11.57;;;7.43;;
22929;SDS011;11630;42.660;23.292;2023-05-14T08:36:36;8.10;;;7.33;;
22929;SDS011;11630;42.660;23.292;2023-05-14T08:39:07;7.87;;;7.03;;
22929;SDS011;11630;42.660;23.292;2023-05-14T08:41:36;11.47;;;6.37;;
22929;SDS011;11630;42.660;23.292;2023-05-14T08:44:13;11.23;;;6.77;;
22929;SDS011;11630;42.660;23.292;2023-05-14T08:46:43;11.43;;;7.20;;
22929;SDS011;11630;42.660;23.292;2023-05-14T08:49:32;10.77;;;6.43;;
22929;SDS011;11630;42.660;23.292;2023-05-14T08:52:09;8.13;;;6.50;;
22929;SDS011;11630;42.660;23.292;2023-05-14T08:54:39;8.67;;;6.70;;
22929;SDS011;11630;42.660;23.292;2023-05-14T08:57:10;7.73;;;6.23;;
22929;SDS011;11630;42.660;23.292;2023-05-14T08:59:42;11.53;;;6.97;;
22929;SDS011;11630;42.660;23.292;2023-05-14T09:02:13;7.20;;;6.03;;
22929;SDS011;11630;42.660;23.292;2023-05-14T09:04:45;10.97;;;5.87;;
22929;SDS011;11630;42.660;23.292;2023-05-14T09:07:19;9.40;;;5.83;;
22929;SDS011;11630;42.660;23.292;2023-05-14T09:09:51;10.00;;;6.93;;
22929;SDS011;11630;42.660;23.292;2023-05-14T09:12:22;10.80;;;6.30;;
22929;SDS011;11630;42.660;23.292;2023-05-14T09:14:52;10.17;;;7.07;;
22929;SDS011;11630;42.660;23.292;2023-05-14T09:17:24;9.00;;;6.53;;
22929;SDS011;11630;42.660;23.292;2023-05-14T09:19:55;10.10;;;6.93;;
22929;SDS011;11630;42.660;23.292;2023-05-14T09:22:28;12.40;;;7.20;;
22929;SDS011;11630;42.660;23.292;2023-05-14T09:25:02;12.13;;;8.23;;
22929;SDS011;11630;42.660;23.292;2023-05-14T09:27:34;8.87;;;7.37;;
22929;SDS011;11630;42.660;23.292;2023-05-14T09:30:13;7.77;;;6.77;;
22929;SDS011;11630;42.660;23.292;2023-05-14T09:32:39;9.00;;;6.90;;
22929;SDS011;11630;42.660;23.292;2023-05-14T09:35:14;8.93;;;7.00;;
22929;SDS011;11630;42.660;23.292;2023-05-14T09:37:46;11.50;;;6.93;;
22929;SDS011;11630;42.660;23.292;2023-05-14T09:40:19;7.70;;;6.57;;
22929;SDS011;11630;42.660;23.292;2023-05-14T09:42:53;7.13;;;6.40;;
22929;SDS011;11630;42.660;23.292;2023-05-14T09:45:24;10.80;;;6.00;;
22929;SDS011;11630;42.660;23.292;2023-05-14T09:47:55;6.63;;;5.97;;
22929;SDS011;11630;42.660;23.292;2023-05-14T09:50:27;7.83;;;5.97;;
22929;SDS011;11630;42.660;23.292;2023-05-14T09:52:58;8.13;;;5.47;;
22929;SDS011;11630;42.660;23.292;2023-05-14T09:55:29;10.13;;;6.40;;
22929;SDS011;11630;42.660;23.292;2023-05-14T09:58:01;8.73;;;6.73;;
22929;SDS011;11630;42.660;23.292;2023-05-14T10:00:33;8.43;;;6.30;;
22929;SDS011;11630;42.660;23.292;2023-05-14T10:03:04;7.27;;;6.50;;
22929;SDS011;11630;42.660;23.292;2023-05-14T10:05:35;7.27;;;6.47;;
22929;SDS011;11630;42.660;23.292;2023-05-14T10:08:55;6.73;;;6.07;;
22929;SDS011;11630;42.660;23.292;2023-05-14T10:10:54;8.33;;;5.90;;
22929;SDS011;11630;42.660;23.292;2023-05-14T10:13:32;6.87;;;6.20;;
22929;SDS011;11630;42.660;23.292;2023-05-14T10:18:51;8.43;;;6.30;;
22929;SDS011;11630;42.660;23.292;2023-05-14T10:21:25;7.83;;;5.80;;
22929;SDS011;11630;42.660;23.292;2023-05-14T10:23:57;5.70;;;5.20;;
22929;SDS011;11630;42.660;23.292;2023-05-14T10:26:28;4.57;;;4.17;;
22929;SDS011;11630;42.660;23.292;2023-05-14T10:29:04;7.67;;;5.67;;
22929;SDS011;11630;42.660;23.292;2023-05-14T10:31:44;6.30;;;5.73;;
22929;SDS011;11630;42.660;23.292;2023-05-14T10:37:24;5.83;;;5.23;;
22929;SDS011;11630;42.660;23.292;2023-05-14T10:42:20;6.17;;;5.33;;
22929;SDS011;11630;42.660;23.292;2023-05-14T10:45:08;7.17;;;6.40;;
22929;SDS011;11630;42.660;23.292;2023-05-14T10:47:38;7.53;;;5.30;;
22929;SDS011;11630;42.660;23.292;2023-05-14T10:50:14;7.70;;;5.33;;
22929;SDS011;11630;42.660;23.292;2023-05-14T10:52:44;8.90;;;6.10;;
22929;SDS011;11630;42.660;23.292;2023-05-14T10:55:15;5.53;;;5.03;;
22929;SDS011;11630;42.660;23.292;2023-05-14T10:57:46;6.97;;;6.03;;
22929;SDS011;11630;42.660;23.292;2023-05-14T11:00:17;6.43;;;5.83;;
22929;SDS011;11630;42.660;23.292;2023-05-14T11:02:48;8.63;;;6.93;;
22929;SDS011;11630;42.660;23.292;2023-05-14T11:05:19;9.67;;;6.47;;
22929;SDS011;11630;42.660;23.292;2023-05-14T11:07:50;7.00;;;6.40;;
22929;SDS011;11630;42.660;23.292;2023-05-14T11:10:22;7.80;;;6.07;;
22929;SDS011;11630;42.660;23.292;2023-05-14T11:12:54;7.60;;;6.47;;
22929;SDS011;11630;42.660;23.292;2023-05-14T11:15:26;8.03;;;6.07;;
22929;SDS011;11630;42.660;23.292;2023-05-14T11:17:57;7.77;;;6.40;;
22929;SDS011;11630;42.660;23.292;2023-05-14T11:20:27;6.50;;;5.90;;
22929;SDS011;11630;42.660;23.292;2023-05-14T11:22:59;7.07;;;5.93;;
22929;SDS011;11630;42.660;23.292;2023-05-14T11:25:30;7.30;;;5.63;;
22929;SDS011;11630;42.660;23.292;2023-05-14T11:28:03;7.10;;;6.23;;
22929;SDS011;11630;42.660;23.292;2023-05-14T11:30:35;7.40;;;5.93;;
22929;SDS011;11630;42.660;23.292;2023-05-14T11:33:08;8.53;;;6.60;;
22929;SDS011;11630;42.660;23.292;2023-05-14T11:35:40;5.47;;;4.97;;
22929;SDS011;11630;42.660;23.292;2023-05-14T11:38:14;5.50;;;4.80;;
22929;SDS011;11630;42.660;23.292;2023-05-14T11:40:56;5.40;;;5.00;;
22929;SDS011;11630;42.660;23.292;2023-05-14T11:43:27;5.17;;;4.67;;
22929;SDS011;11630;42.660;23.292;2023-05-14T11:45:58;5.40;;;4.90;;
22929;SDS011;11630;42.660;23.292;2023-05-14T11:48:28;6.00;;;5.50;;
22929;SDS011;11630;42.660;23.292;2023-05-14T11:51:03;6.77;;;6.10;;
22929;SDS011;11630;42.660;23.292;2023-05-14T11:53:34;5.20;;;4.70;;
22929;SDS011;11630;42.660;23.292;2023-05-14T11:56:04;6.87;;;6.13;;
22929;SDS011;11630;42.660;23.292;2023-05-14T11:58:34;7.33;;;6.63;;
22929;SDS011;11630;42.660;23.292;2023-05-14T12:01:04;8.23;;;7.53;;
22929;SDS011;11630;42.660;23.292;2023-05-14T12:03:37;9.13;;;8.23;;
22929;SDS011;11630;42.660;23.292;2023-05-14T12:06:08;9.20;;;8.30;;
22929;SDS011;11630;42.660;23.292;2023-05-14T12:08:39;9.23;;;8.43;;
22929;SDS011;11630;42.660;23.292;2023-05-14T12:11:10;9.50;;;8.53;;
22929;SDS011;11630;42.660;23.292;2023-05-14T12:13:41;9.53;;;8.63;;
22929;SDS011;11630;42.660;23.292;2023-05-14T12:16:12;11.93;;;8.57;;
22929;SDS011;11630;42.660;23.292;2023-05-14T12:18:42;9.63;;;8.07;;
22929;SDS011;11630;42.660;23.292;2023-05-14T12:21:13;12.30;;;7.97;;
22929;SDS011;11630;42.660;23.292;2023-05-14T12:23:44;11.87;;;8.40;;
22929;SDS011;11630;42.660;23.292;2023-05-14T12:26:15;9.10;;;8.30;;
22929;SDS011;11630;42.660;23.292;2023-05-14T12:28:46;9.60;;;8.70;;
22929;SDS011;11630;42.660;23.292;2023-05-14T12:31:26;7.63;;;6.93;;
22929;SDS011;11630;42.660;23.292;2023-05-14T12:34:02;11.03;;;7.80;;
22929;SDS011;11630;42.660;23.292;2023-05-14T12:36:33;8.27;;;7.47;;
22929;SDS011;11630;42.660;23.292;2023-05-14T12:39:05;9.47;;;7.03;;
22929;SDS011;11630;42.660;23.292;2023-05-14T12:41:36;7.43;;;6.70;;
22929;SDS011;11630;42.660;23.292;2023-05-14T12:44:07;8.83;;;7.93;;
22929;SDS011;11630;42.660;23.292;2023-05-14T12:46:38;8.17;;;7.33;;
22929;SDS011;11630;42.660;23.292;2023-05-14T12:49:09;13.60;;;8.87;;
22929;SDS011;11630;42.660;23.292;2023-05-14T12:51:40;9.90;;;7.63;;
22929;SDS011;11630;42.660;23.292;2023-05-14T12:54:11;8.50;;;7.60;;
22929;SDS011;11630;42.660;23.292;2023-05-14T12:56:42;6.47;;;5.87;;
22929;SDS011;11630;42.660;23.292;2023-05-14T12:59:13;7.37;;;5.93;;
22929;SDS011;11630;42.660;23.292;2023-05-14T13:01:44;8.50;;;7.23;;
22929;SDS011;11630;42.660;23.292;2023-05-14T13:04:15;13.07;;;7.20;;
22929;SDS011;11630;42.660;23.292;2023-05-14T13:06:45;8.83;;;8.03;;
22929;SDS011;11630;42.660;23.292;2023-05-14T13:09:16;8.80;;;7.90;;
22929;SDS011;11630;42.660;23.292;2023-05-14T13:11:50;8.77;;;7.83;;
22929;SDS011;11630;42.660;23.292;2023-05-14T13:14:21;7.73;;;7.00;;
22929;SDS011;11630;42.660;23.292;2023-05-14T13:16:52;12.70;;;8.40;;
22929;SDS011;11630;42.660;23.292;2023-05-14T13:19:23;9.47;;;8.50;;
22929;SDS011;11630;42.660;23.292;2023-05-14T13:21:53;9.80;;;8.80;;
22929;SDS011;11630;42.660;23.292;2023-05-14T13:24:23;9.80;;;8.77;;
22929;SDS011;11630;42.660;23.292;2023-05-14T13:26:54;10.00;;;9.00;;
22929;SDS011;11630;42.660;23.292;2023-05-14T13:29:25;8.90;;;8.00;;
22929;SDS011;11630;42.660;23.292;2023-05-14T13:31:58;9.43;;;8.43;;
22929;SDS011;11630;42.660;23.292;2023-05-14T13:34:29;9.20;;;8.20;;
22929;SDS011;11630;42.660;23.292;2023-05-14T13:37:00;9.70;;;8.70;;
22929;SDS011;11630;42.660;23.292;2023-05-14T13:39:31;9.80;;;8.53;;
22929;SDS011;11630;42.660;23.292;2023-05-14T13:42:02;13.37;;;8.07;;
22929;SDS011;11630;42.660;23.292;2023-05-14T13:44:33;8.70;;;7.83;;
22929;SDS011;11630;42.660;23.292;2023-05-14T13:47:04;12.57;;;9.17;;
22929;SDS011;11630;42.660;23.292;2023-05-14T13:49:34;10.27;;;8.43;;
22929;SDS011;11630;42.660;23.292;2023-05-14T13:52:05;14.20;;;10.27;;
22929;SDS011;11630;42.660;23.292;2023-05-14T13:54:36;10.00;;;8.97;;
22929;SDS011;11630;42.660;23.292;2023-05-14T13:57:07;11.57;;;10.33;;
22929;SDS011;11630;42.660;23.292;2023-05-14T13:59:38;14.17;;;10.40;;
22929;SDS011;11630;42.660;23.292;2023-05-14T14:02:09;11.53;;;10.33;;
22929;SDS011;11630;42.660;23.292;2023-05-14T14:04:39;10.47;;;9.47;;
22929;SDS011;11630;42.660;23.292;2023-05-14T14:07:10;12.23;;;11.03;;
22929;SDS011;11630;42.660;23.292;2023-05-14T14:09:41;13.30;;;10.73;;
22929;SDS011;11630;42.660;23.292;2023-05-14T14:12:12;12.07;;;10.77;;
22929;SDS011;11630;42.660;23.292;2023-05-14T14:14:43;17.60;;;13.47;;
22929;SDS011;11630;42.660;23.292;2023-05-14T14:17:14;13.77;;;12.20;;
22929;SDS011;11630;42.660;23.292;2023-05-14T14:19:45;14.57;;;11.57;;
22929;SDS011;11630;42.660;23.292;2023-05-14T14:22:16;13.90;;;11.37;;
22929;SDS011;11630;42.660;23.292;2023-05-14T14:24:49;13.10;;;10.77;;
22929;SDS011;11630;42.660;23.292;2023-05-14T14:27:20;13.90;;;11.87;;
22929;SDS011;11630;42.660;23.292;2023-05-14T14:29:51;12.30;;;11.00;;
22929;SDS011;11630;42.660;23.292;2023-05-14T14:32:22;13.73;;;11.67;;
22929;SDS011;11630;42.660;23.292;2023-05-14T14:34:55;13.53;;;12.13;;
22929;SDS011;11630;42.660;23.292;2023-05-14T14:37:25;15.00;;;11.37;;
22929;SDS011;11630;42.660;23.292;2023-05-14T14:39:55;16.67;;;12.67;;
22929;SDS011;11630;42.660;23.292;2023-05-14T14:42:26;12.17;;;10.47;;
22929;SDS011;11630;42.660;23.292;2023-05-14T14:44:56;14.10;;;11.83;;
22929;SDS011;11630;42.660;23.292;2023-05-14T14:47:27;15.00;;;13.20;;
22929;SDS011;11630;42.660;23.292;2023-05-14T14:49:58;14.90;;;12.50;;
22929;SDS011;11630;42.660;23.292;2023-05-14T14:52:28;14.87;;;13.20;;
22929;SDS011;11630;42.660;23.292;2023-05-14T14:54:59;18.07;;;13.40;;
22929;SDS011;11630;42.660;23.292;2023-05-14T14:57:29;16.33;;;14.27;;
22929;SDS011;11630;42.660;23.292;2023-05-14T14:59:59;18.07;;;13.83;;
22929;SDS011;11630;42.660;23.292;2023-05-14T15:02:29;15.50;;;13.53;;
22929;SDS011;11630;42.660;23.292;2023-05-14T15:05:00;17.80;;;13.53;;
22929;SDS011;11630;42.660;23.292;2023-05-14T15:07:31;14.50;;;13.00;;
22929;SDS011;11630;42.660;23.292;2023-05-14T15:10:02;16.93;;;13.67;;